createdAt,value
2018-10-05T00:00:26.809Z,5.57
2018-10-05T00:02:55.853Z,5.46
2018-10-05T00:08:00.580Z,5.41
2018-10-05T00:10:30.549Z,5.36
2018-10-05T00:15:35.380Z,5.46
2018-10-05T00:18:04.423Z,5.54
2018-10-05T00:20:33.488Z,5.45
2018-10-05T00:23:02.512Z,5.45
2018-10-05T00:25:31.558Z,5.48
2018-10-05T00:28:06.186Z,5.41
2018-10-05T00:30:35.229Z,5.46
2018-10-05T00:35:40.993Z,5.34
2018-10-05T00:38:10.261Z,5.27
2018-10-05T00:40:39.220Z,5.18
2018-10-05T00:43:08.261Z,5.12
2018-10-05T00:48:13.001Z,5.01
2018-10-05T00:50:42.965Z,4.89
2018-10-05T00:55:47.755Z,4.86
2018-10-05T00:58:16.828Z,4.86
2018-10-05T01:00:45.873Z,4.66
2018-10-05T01:05:51.585Z,4.68
2018-10-05T01:10:56.395Z,4.60
2018-10-05T01:16:01.154Z,4.66
2018-10-05T01:18:34.702Z,4.62
2018-10-05T01:21:03.771Z,4.66
2018-10-05T01:23:33.793Z,4.74
2018-10-05T01:26:02.855Z,4.66
2018-10-05T01:28:35.922Z,4.68
2018-10-05T01:31:05.913Z,4.66
2018-10-05T01:36:11.685Z,4.64
2018-10-05T01:41:16.372Z,4.66
2018-10-05T01:43:45.429Z,4.61
2018-10-05T01:46:14.488Z,4.50
2018-10-05T01:48:43.638Z,4.64
2018-10-05T01:51:13.698Z,4.73
2018-10-05T01:53:42.765Z,4.65
2018-10-05T01:56:11.917Z,4.50
2018-10-05T02:01:16.657Z,4.53
2018-10-05T02:03:45.704Z,4.44
2018-10-05T02:08:50.503Z,4.48
2018-10-05T02:14:08.721Z,4.50
2018-10-05T02:16:37.777Z,4.54
2018-10-05T02:19:07.845Z,4.62
2018-10-05T02:21:36.926Z,4.65
2018-10-05T02:26:41.745Z,4.65
2018-10-05T02:29:10.781Z,4.75
2018-10-05T02:31:39.902Z,4.53
2018-10-05T02:34:08.924Z,4.41
2018-10-05T02:36:37.987Z,4.48
2018-10-05T02:39:09.030Z,4.45
2018-10-05T02:41:38.124Z,4.45
2018-10-05T02:44:07.125Z,4.61
2018-10-05T02:46:38.178Z,4.62
2018-10-05T02:49:08.187Z,4.42
2018-10-05T02:51:37.240Z,4.39
2018-10-05T02:59:17.733Z,4.16
2018-10-05T03:02:09.265Z,4.03
2018-10-05T03:04:39.303Z,4.02
2018-10-05T03:07:08.425Z,4.04
2018-10-05T03:09:37.535Z,3.94
2018-10-05T03:12:06.591Z,3.95
2018-10-05T03:14:35.641Z,3.97
2018-10-05T03:17:04.693Z,3.88
2018-10-05T03:19:34.773Z,3.83
2018-10-05T03:22:03.797Z,3.86
2018-10-05T03:27:10.540Z,3.99
2018-10-05T03:29:39.656Z,3.93
2018-10-05T03:32:08.716Z,3.94
2018-10-05T03:34:37.757Z,4.00
2018-10-05T03:37:06.812Z,4.07
2018-10-05T03:39:35.879Z,4.02
2018-10-05T03:44:40.625Z,4.06
2018-10-05T03:47:09.678Z,4.00
2018-10-05T03:49:38.737Z,3.97
2018-10-05T03:52:08.682Z,3.97
2018-10-05T03:54:37.731Z,4.10
2018-10-05T03:57:06.786Z,4.13
2018-10-05T04:02:13.576Z,4.14
2018-10-05T04:04:43.653Z,4.16
2018-10-05T04:07:12.701Z,4.08
2018-10-05T04:12:17.493Z,4.10
2018-10-05T04:17:23.294Z,4.22
2018-10-05T04:19:52.331Z,4.09
2018-10-05T04:22:21.442Z,3.97
2018-10-05T04:24:50.502Z,3.94
2018-10-05T04:27:19.629Z,3.89
2018-10-05T04:29:48.669Z,3.94
2018-10-05T04:32:17.700Z,4.01
2018-10-05T04:34:46.737Z,4.03
2018-10-05T04:37:15.792Z,4.07
2018-10-05T04:39:44.885Z,3.96
2018-10-05T04:44:50.509Z,3.72
2018-10-05T04:47:19.620Z,3.67
2018-10-05T04:49:48.636Z,3.38
2018-10-05T04:52:17.678Z,3.44
2018-10-05T04:54:47.690Z,3.70
2018-10-05T04:57:16.741Z,3.77
2018-10-05T04:59:45.814Z,3.94
2018-10-05T05:02:16.856Z,3.95
2018-10-05T05:04:46.862Z,3.99
2018-10-05T05:09:51.652Z,4.20
2018-10-05T05:12:21.620Z,4.32
2018-10-05T05:14:50.695Z,4.42
2018-10-05T05:17:19.732Z,4.40
2018-10-05T05:22:25.026Z,4.49
2018-10-05T05:24:54.077Z,4.52
2018-10-05T05:27:23.133Z,4.58
2018-10-05T05:29:52.198Z,4.69
2018-10-05T05:32:21.378Z,4.77
2018-10-05T05:34:50.424Z,4.94
2018-10-05T05:37:19.487Z,5.10
2018-10-05T05:42:24.293Z,5.36
2018-10-05T05:44:54.365Z,5.48
2018-10-05T05:47:23.415Z,5.63
2018-10-05T05:52:28.153Z,5.50
2018-10-05T05:54:57.256Z,5.90
2018-10-05T05:57:40.367Z,5.90
2018-10-05T06:00:23.837Z,5.89
2018-10-05T06:03:05.675Z,5.96
2018-10-05T06:05:47.291Z,6.12
2018-10-05T06:10:53.715Z,6.38
2018-10-05T06:13:22.753Z,6.36
2018-10-05T06:15:51.906Z,6.65
2018-10-05T06:18:20.920Z,6.88
2018-10-05T06:23:26.742Z,7.30
2018-10-05T06:25:57.732Z,7.50
2018-10-05T06:28:26.772Z,7.70
2018-10-05T06:30:55.881Z,7.92
2018-10-05T06:33:29.533Z,7.95
2018-10-05T06:35:58.592Z,8.03
2018-10-05T06:38:27.686Z,7.98
2018-10-05T06:40:58.673Z,8.12
2018-10-05T06:43:27.729Z,8.02
2018-10-05T06:48:32.481Z,8.10
2018-10-05T06:53:37.473Z,8.21
2018-10-05T06:56:06.521Z,8.00
2018-10-05T06:58:35.569Z,8.09
2018-10-05T07:01:04.672Z,8.52
2018-10-05T07:03:34.688Z,8.68
2018-10-05T07:06:04.737Z,8.41
2018-10-05T07:08:36.009Z,9.22
2018-10-05T07:16:16.494Z,8.95
2018-10-05T07:18:46.431Z,9.19
2018-10-05T07:23:56.709Z,9.76
2018-10-05T07:26:26.689Z,10.07
2018-10-05T07:28:55.977Z,10.14
2018-10-05T07:34:01.147Z,8.52
2018-10-05T07:36:31.097Z,9.18
2018-10-05T07:39:04.044Z,9.60
2018-10-05T07:41:33.087Z,10.10
2018-10-05T07:44:02.140Z,10.26
2018-10-05T07:46:31.474Z,9.74
2018-10-05T07:49:00.513Z,9.89
2018-10-05T07:51:29.695Z,10.87
2018-10-05T07:53:58.900Z,11.26
2018-10-05T07:56:27.952Z,10.50
2018-10-05T07:58:57.970Z,11.43
2018-10-05T08:01:27.025Z,10.60
2018-10-05T08:03:56.107Z,10.51
2018-10-05T08:09:00.902Z,10.50
2018-10-05T08:11:29.943Z,11.47
2018-10-05T08:13:59.026Z,9.91
2018-10-05T08:16:28.122Z,10.47
2018-10-05T08:18:57.201Z,10.76
2018-10-05T08:21:26.261Z,10.88
2018-10-05T08:23:55.286Z,11.89
2018-10-05T08:26:24.451Z,11.05
2018-10-05T08:28:53.466Z,11.84
2018-10-05T08:31:26.013Z,11.81
2018-10-05T08:33:56.072Z,12.11
2018-10-05T08:36:25.097Z,12.80
2018-10-05T08:38:54.161Z,13.17
2018-10-05T08:41:23.206Z,12.64
2018-10-05T08:43:52.256Z,12.36
2018-10-05T08:49:02.032Z,15.42
2018-10-05T08:54:07.906Z,19.45
2018-10-05T08:56:39.972Z,19.87
2018-10-05T08:59:10.034Z,21.19
2018-10-05T09:01:41.094Z,19.61
2018-10-05T09:04:11.101Z,21.30
2018-10-05T09:06:40.186Z,22.02
2018-10-05T09:09:09.230Z,20.54
2018-10-05T09:14:14.109Z,25.13
2018-10-05T09:16:43.164Z,26.88
2018-10-05T09:19:13.173Z,28.38
2018-10-05T09:21:45.249Z,29.25
2018-10-05T09:24:14.369Z,28.75
2018-10-05T09:29:20.141Z,32.45
2018-10-05T09:31:51.143Z,32.16
2018-10-05T09:34:20.189Z,32.98
2018-10-05T09:36:49.255Z,33.82
2018-10-05T09:39:18.314Z,32.21
2018-10-05T09:41:47.463Z,34.35
2018-10-05T09:44:16.508Z,33.98
2018-10-05T09:46:45.564Z,33.37
2018-10-05T09:49:14.709Z,34.11
2018-10-05T09:51:45.728Z,34.86
2018-10-05T09:54:18.398Z,35.79
2018-10-05T09:56:47.452Z,35.27
2018-10-05T10:01:52.370Z,35.66
2018-10-05T10:04:21.418Z,33.93
2018-10-05T10:09:22.909Z,35.28
2018-10-05T10:11:52.002Z,35.59
2018-10-05T10:14:21.051Z,36.62
2018-10-05T10:16:51.047Z,34.10
2018-10-05T10:19:20.122Z,36.77
2018-10-05T10:21:49.212Z,36.88
2018-10-05T10:24:19.337Z,38.15
2018-10-05T10:26:48.404Z,35.53
2018-10-05T10:29:18.615Z,34.58
2018-10-05T10:31:47.571Z,36.59
2018-10-05T10:34:17.591Z,37.70
2018-10-05T10:36:46.700Z,38.85
2018-10-05T10:39:15.683Z,36.97
2018-10-05T10:41:45.697Z,36.17
2018-10-05T10:44:14.793Z,37.82
2018-10-05T10:46:43.854Z,39.53
2018-10-05T10:49:12.912Z,40.06
2018-10-05T10:51:42.909Z,40.11
2018-10-05T10:54:13.046Z,40.22
2018-10-05T10:56:42.014Z,39.06
2018-10-05T10:59:11.072Z,35.35
2018-10-05T11:01:41.062Z,37.47
2018-10-05T11:04:10.237Z,38.87
2018-10-05T11:06:39.253Z,38.17
2018-10-05T11:09:08.306Z,39.49
2018-10-05T11:11:41.647Z,39.99
2018-10-05T11:14:12.705Z,40.18
2018-10-05T11:16:41.765Z,39.83
2018-10-05T11:19:10.826Z,40.40
2018-10-05T11:21:41.925Z,40.50
2018-10-05T11:24:12.981Z,41.34
2018-10-05T11:26:43.057Z,42.50
2018-10-05T11:29:12.101Z,37.48
2018-10-05T11:31:41.162Z,40.89
2018-10-05T11:34:10.208Z,41.90
2018-10-05T11:36:39.260Z,42.30
2018-10-05T11:39:08.318Z,41.08
2018-10-05T11:41:37.437Z,41.36
2018-10-05T11:44:06.493Z,40.48
2018-10-05T11:46:35.542Z,42.61
2018-10-05T11:49:04.605Z,42.50
2018-10-05T11:51:33.658Z,40.75
2018-10-05T11:54:02.730Z,42.72
2018-10-05T11:56:43.239Z,43.33
2018-10-05T11:59:12.298Z,42.91
2018-10-05T12:01:42.269Z,42.06
2018-10-05T12:04:11.313Z,42.54
2018-10-05T12:06:40.368Z,42.18
2018-10-05T12:09:10.393Z,42.70
2018-10-05T12:11:39.533Z,42.92
2018-10-05T12:14:08.597Z,42.53
2018-10-05T12:16:37.649Z,42.14
2018-10-05T12:19:06.734Z,42.73
2018-10-05T12:21:35.786Z,43.62
2018-10-05T12:24:08.428Z,43.10
2018-10-05T12:29:15.364Z,41.53
2018-10-05T12:31:45.428Z,40.74
2018-10-05T12:34:14.568Z,40.21
2018-10-05T12:36:44.621Z,41.32
2018-10-05T12:39:15.667Z,37.03
2018-10-05T12:41:44.725Z,39.93
2018-10-05T12:44:13.789Z,40.94
2018-10-05T12:46:43.003Z,40.87
2018-10-05T12:49:12.075Z,40.32
2018-10-05T12:51:41.122Z,41.77
2018-10-05T12:54:10.210Z,42.07
2018-10-05T12:56:39.258Z,41.90
2018-10-05T12:59:08.317Z,37.42
2018-10-05T13:01:37.380Z,40.45
2018-10-05T13:04:06.442Z,41.67
2018-10-05T13:06:35.490Z,40.81
2018-10-05T13:09:04.540Z,38.85
2018-10-05T13:11:33.607Z,41.49
2018-10-05T13:16:40.374Z,41.46
2018-10-05T13:19:09.437Z,41.31
2018-10-05T13:21:38.524Z,39.40
2018-10-05T13:24:07.571Z,40.81
2018-10-05T13:31:48.184Z,41.68
2018-10-05T13:34:17.285Z,42.45
2018-10-05T13:36:48.277Z,38.66
2018-10-05T13:39:17.324Z,37.54
2018-10-05T13:41:46.428Z,38.92
2018-10-05T13:44:16.402Z,39.65
2018-10-05T13:46:45.511Z,40.38
2018-10-05T13:49:14.568Z,38.99
2018-10-05T13:54:24.049Z,37.47
2018-10-05T13:59:28.460Z,40.95
2018-10-05T14:01:57.532Z,40.33
2018-10-05T14:04:30.793Z,36.51
2018-10-05T14:07:01.866Z,37.49
2018-10-05T14:09:30.951Z,39.34
2018-10-05T14:12:02.004Z,37.28
2018-10-05T14:14:31.079Z,35.94
2018-10-05T14:17:00.137Z,38.30
2018-10-05T14:19:30.204Z,39.39
2018-10-05T14:21:59.260Z,39.69
2018-10-05T14:24:28.344Z,39.76
2018-10-05T14:26:58.384Z,35.16
2018-10-05T14:29:27.452Z,37.11
2018-10-05T14:31:56.592Z,39.50
2018-10-05T14:34:25.663Z,39.72
2018-10-05T14:39:30.519Z,36.82
2018-10-05T14:44:40.231Z,39.72
2018-10-05T14:47:09.288Z,36.04
2018-10-05T14:49:39.568Z,37.99
2018-10-05T14:52:08.581Z,36.57
2018-10-05T14:54:37.713Z,34.72
2018-10-05T14:57:06.814Z,33.07
2018-10-05T14:59:35.834Z,32.54
2018-10-05T15:02:04.910Z,30.46
2018-10-05T15:07:09.832Z,28.23
2018-10-05T15:09:38.803Z,28.63
2018-10-05T15:17:19.351Z,27.76
2018-10-05T15:19:48.406Z,27.23
2018-10-05T15:24:53.320Z,25.82
2018-10-05T15:27:23.357Z,26.05
2018-10-05T15:29:52.425Z,26.16
2018-10-05T15:32:21.486Z,25.70
2018-10-05T15:34:52.521Z,25.41
2018-10-05T15:37:21.584Z,25.00
2018-10-05T15:39:50.653Z,24.59
2018-10-05T15:42:19.701Z,24.50
2018-10-05T15:45:01.042Z,24.31
2018-10-05T15:47:42.969Z,23.92
2018-10-05T15:50:22.517Z,23.50
2018-10-05T15:55:42.198Z,22.93
2018-10-05T15:58:19.383Z,22.66
2018-10-05T16:00:57.793Z,22.11
2018-10-05T16:03:29.358Z,21.85
2018-10-05T16:06:04.484Z,21.37
2018-10-05T16:08:40.860Z,21.09
2018-10-05T16:11:19.733Z,20.75
2018-10-05T16:14:02.038Z,20.44
2018-10-05T16:16:40.408Z,20.14
2018-10-05T16:19:17.876Z,19.78
2018-10-05T16:21:55.961Z,19.60
2018-10-05T16:24:35.627Z,19.65
2018-10-05T16:27:10.954Z,19.32
2018-10-05T16:37:38.055Z,18.65
2018-10-05T16:40:12.922Z,18.19
2018-10-05T16:42:49.798Z,17.88
2018-10-05T16:45:26.930Z,18.04
2018-10-05T16:47:57.282Z,17.69
2018-10-05T16:50:26.345Z,17.50
2018-10-05T16:52:55.600Z,17.28
2018-10-05T16:55:24.621Z,17.32
2018-10-05T16:57:53.681Z,17.06
2018-10-05T17:00:22.763Z,16.77
2018-10-05T17:02:51.802Z,16.44
2018-10-05T17:05:21.806Z,16.38
2018-10-05T17:07:50.850Z,16.00
2018-10-05T17:10:19.916Z,15.83
2018-10-05T17:12:48.950Z,15.67
2018-10-05T17:15:18.011Z,15.49
2018-10-05T17:17:47.099Z,15.41
2018-10-05T17:20:20.819Z,15.36
2018-10-05T17:22:49.890Z,15.12
2018-10-05T17:25:18.940Z,14.92
2018-10-05T17:27:48.075Z,15.02
2018-10-05T17:30:17.117Z,14.75
2018-10-05T17:32:47.128Z,14.47
2018-10-05T17:35:16.176Z,14.38
2018-10-05T17:37:45.262Z,14.38
2018-10-05T17:40:14.272Z,14.32
2018-10-05T17:42:43.318Z,13.96
2018-10-05T17:45:12.417Z,13.97
2018-10-05T17:47:41.526Z,13.74
2018-10-05T17:50:10.574Z,13.54
2018-10-05T17:52:39.623Z,13.42
2018-10-05T17:55:08.700Z,13.64
2018-10-05T17:57:37.735Z,13.60
2018-10-05T18:00:06.784Z,13.38
2018-10-05T18:02:35.825Z,13.22
2018-10-05T18:05:10.650Z,13.17
2018-10-05T18:07:39.698Z,13.09
2018-10-05T18:10:10.729Z,13.11
2018-10-05T18:12:43.299Z,13.02
2018-10-05T18:15:12.332Z,13.03
2018-10-05T18:20:17.189Z,12.78
2018-10-05T18:22:46.295Z,12.39
2018-10-05T18:25:15.356Z,12.32
2018-10-05T18:27:44.409Z,12.15
2018-10-05T18:30:13.481Z,12.14
2018-10-05T18:37:54.081Z,12.44
2018-10-05T18:40:23.334Z,12.13
2018-10-05T18:42:52.426Z,12.19
2018-10-05T18:45:21.528Z,12.20
2018-10-05T18:47:50.702Z,12.13
2018-10-05T18:50:19.751Z,12.04
2018-10-05T18:55:24.548Z,12.02
2018-10-05T18:57:53.620Z,11.91
2018-10-05T19:00:22.749Z,11.86
2018-10-05T19:02:56.576Z,11.71
2018-10-05T19:05:26.700Z,11.61
2018-10-05T19:07:57.657Z,11.51
2018-10-05T19:10:26.744Z,11.56
2018-10-05T19:12:55.817Z,11.73
2018-10-05T19:15:26.335Z,11.68
2018-10-05T19:17:56.492Z,11.56
2018-10-05T19:20:26.173Z,11.32
2018-10-05T19:22:58.819Z,11.30
2018-10-05T19:25:28.020Z,11.32
2018-10-05T19:27:57.083Z,11.29
2018-10-05T19:30:26.133Z,11.33
2018-10-05T19:35:30.897Z,11.45
2018-10-05T19:38:00.410Z,11.60
2018-10-05T19:40:29.517Z,11.43
2018-10-05T19:42:58.753Z,11.19
2018-10-05T19:45:27.861Z,11.23
2018-10-05T19:47:58.130Z,11.22
2018-10-05T19:50:27.246Z,11.12
2018-10-05T19:52:56.398Z,11.10
2018-10-05T19:55:26.469Z,10.97
2018-10-05T19:57:55.553Z,10.92
2018-10-05T20:00:24.661Z,10.95
2018-10-05T20:02:53.829Z,10.80
2018-10-05T20:05:26.302Z,10.73
2018-10-05T20:08:02.953Z,10.68
2018-10-05T20:10:33.860Z,10.65
2018-10-05T20:13:04.314Z,10.57
2018-10-05T20:18:10.375Z,10.82
2018-10-05T20:20:41.102Z,10.77
2018-10-05T20:23:14.287Z,10.65
2018-10-05T20:25:43.512Z,10.45
2018-10-05T20:30:48.847Z,10.32
2018-10-05T20:33:18.844Z,10.24
2018-10-05T20:35:48.882Z,10.23
2018-10-05T20:40:57.100Z,10.26
2018-10-05T20:43:27.479Z,10.20
2018-10-05T20:45:56.993Z,10.16
2018-10-05T20:48:27.017Z,10.10
2018-10-05T20:51:01.877Z,10.05
2018-10-05T20:53:31.233Z,10.08
2018-10-05T20:56:01.275Z,10.02
2018-10-05T20:58:30.309Z,10.11
2018-10-05T21:01:00.887Z,10.07
2018-10-05T21:03:30.919Z,10.03
2018-10-05T21:06:00.209Z,10.01
2018-10-05T21:08:31.066Z,10.11
2018-10-05T21:16:13.929Z,9.91
2018-10-05T21:18:43.632Z,9.57
2018-10-05T21:21:12.656Z,9.39
2018-10-05T21:23:42.363Z,9.37
2018-10-05T21:26:11.503Z,9.52
2018-10-05T21:28:44.333Z,9.53
2018-10-05T21:31:15.090Z,9.71
2018-10-05T21:33:44.145Z,9.78
2018-10-05T21:36:13.740Z,9.84
2018-10-05T21:41:28.632Z,9.94
2018-10-05T21:43:59.635Z,9.90
2018-10-05T21:46:29.604Z,9.88
2018-10-05T21:49:04.265Z,9.80
2018-10-05T21:51:33.497Z,9.79
2018-10-05T21:54:04.115Z,9.79
2018-10-05T21:56:36.496Z,9.86
2018-10-05T21:59:06.993Z,9.71
2018-10-05T22:01:37.607Z,9.60
2018-10-05T22:04:08.455Z,9.59
2018-10-05T22:06:37.615Z,9.65
2018-10-05T22:09:12.401Z,9.73
2018-10-05T22:14:17.657Z,9.74
2018-10-05T22:16:47.983Z,9.76
2018-10-05T22:19:17.029Z,9.66
2018-10-05T22:21:46.102Z,9.70
2018-10-05T22:24:24.798Z,9.54
2018-10-05T22:29:33.779Z,9.61
2018-10-05T22:32:03.635Z,9.45
2018-10-05T22:34:34.898Z,9.31
2018-10-05T22:37:05.173Z,9.22
2018-10-05T22:39:35.360Z,9.15
2018-10-05T22:42:06.715Z,9.02
2018-10-05T22:44:36.941Z,9.09
2018-10-05T22:47:07.532Z,8.93
2018-10-05T22:49:37.680Z,8.96
2018-10-05T22:52:09.131Z,8.85
2018-10-05T22:54:40.915Z,8.84
2018-10-05T22:57:11.117Z,8.75
2018-10-05T22:59:42.198Z,8.60
2018-10-05T23:02:11.237Z,8.57
2018-10-05T23:10:04.620Z,8.70
2018-10-05T23:12:34.161Z,8.70
2018-10-05T23:15:03.221Z,8.76
2018-10-05T23:17:32.248Z,8.75
2018-10-05T23:20:01.293Z,8.77
2018-10-05T23:22:30.342Z,8.76
2018-10-05T23:27:35.095Z,8.61
2018-10-05T23:30:04.171Z,8.49
2018-10-05T23:32:35.190Z,8.54
2018-10-05T23:35:04.268Z,8.70
2018-10-05T23:37:42.127Z,8.89
2018-10-05T23:40:15.139Z,9.16
2018-10-05T23:42:45.690Z,9.21
2018-10-05T23:45:14.962Z,9.38
2018-10-05T23:47:45.945Z,9.44
2018-10-05T23:50:23.904Z,9.50
2018-10-05T23:52:57.753Z,9.25
2018-10-05T23:55:35.948Z,9.30
2018-10-05T23:58:11.754Z,9.22
